Time;durP1;ratioP1;P1;durP2;ratioP2;P2;SDS_P1;SDS_P2;PMS_P1;PMS_P2;Temp;Humidity;BMP_temperature;BMP_pressure;BME280_temperature;BME280_humidity;BME280_pressure;Samples;Min_cycle;Max_cycle;Signal;HPM_P1;HPM_P2
2022/12/03 00:00:19;;;;;;;32.05;17.08;;;22.10;36.70;;;;;;7712980;22;83354;-60
2022/12/03 00:03:19;;;;;;;32.95;17.88;;;22.10;37.10;;;;;;7712576;22;84044;-60
2022/12/03 00:06:20;;;;;;;39.10;18.85;;;22.10;37.00;;;;;;7715378;22;83362;-60
2022/12/03 00:09:20;;;;;;;33.63;17.38;;;22.10;36.90;;;;;;7712075;22;84781;-60
2022/12/03 00:12:21;;;;;;;36.58;17.77;;;22.10;36.80;;;;;;7712527;22;83192;-67
2022/12/03 00:15:21;;;;;;;34.75;18.77;;;22.00;36.80;;;;;;7715262;22;82617;-68
2022/12/03 00:18:22;;;;;;;32.58;17.98;;;22.00;36.80;;;;;;7714949;22;83560;-68
2022/12/03 00:21:22;;;;;;;37.88;17.75;;;22.00;36.80;;;;;;7685357;22;86128;-69
2022/12/03 00:24:23;;;;;;;36.72;18.52;;;22.00;36.80;;;;;;7713938;22;84182;-68
2022/12/03 00:27:23;;;;;;;35.40;18.40;;;22.00;36.80;;;;;;7711545;22;82993;-66
2022/12/03 00:30:24;;;;;;;36.53;17.38;;;22.00;37.00;;;;;;7713285;22;85175;-70
2022/12/03 00:33:24;;;;;;;34.55;18.70;;;22.00;37.00;;;;;;7715519;22;82934;-71
2022/12/03 00:36:25;;;;;;;36.72;18.52;;;22.00;36.70;;;;;;7713455;22;82878;-70
2022/12/03 00:39:27;;;;;;;37.38;18.35;;;22.00;36.60;;;;;;7713903;22;83172;-71
2022/12/03 00:42:28;;;;;;;36.05;19.17;;;22.00;36.70;;;;;;7714021;22;83114;-71
2022/12/03 00:45:28;;;;;;;42.20;19.77;;;22.00;36.80;;;;;;7714901;22;82615;-67
2022/12/03 00:48:29;;;;;;;43.58;20.02;;;22.00;36.70;;;;;;7711506;22;83330;-60
2022/12/03 00:51:29;;;;;;;38.50;20.63;;;22.00;36.80;;;;;;7712026;22;83497;-60
2022/12/03 00:54:30;;;;;;;40.55;19.35;;;22.00;36.90;;;;;;7713021;22;82574;-59
2022/12/03 00:57:30;;;;;;;39.30;21.17;;;21.90;36.70;;;;;;7715084;22;83078;-59
2022/12/03 01:00:31;;;;;;;38.33;19.45;;;21.90;36.80;;;;;;7711692;22;83488;-59
2022/12/03 01:03:31;;;;;;;37.10;19.00;;;21.90;36.80;;;;;;7712387;22;82553;-60
2022/12/03 01:06:32;;;;;;;37.83;19.42;;;22.00;37.00;;;;;;7715171;22;83490;-60
2022/12/03 01:09:32;;;;;;;39.08;18.88;;;21.90;36.90;;;;;;7712898;22;83222;-58
2022/12/03 01:12:33;;;;;;;33.22;17.70;;;21.90;37.10;;;;;;7707530;22;82619;-59
2022/12/03 01:15:33;;;;;;;35.22;17.77;;;21.90;37.10;;;;;;7714372;22;83381;-59
2022/12/03 01:18:34;;;;;;;34.67;18.23;;;21.90;37.10;;;;;;7712806;22;84010;-59
2022/12/03 01:21:34;;;;;;;36.20;17.58;;;21.90;37.10;;;;;;7712218;22;82732;-59
2022/12/03 01:24:35;;;;;;;40.80;18.35;;;21.90;37.30;;;;;;7712055;22;82976;-61
2022/12/03 01:27:35;;;;;;;36.38;17.80;;;21.90;37.30;;;;;;7714726;22;83367;-60
2022/12/03 01:32:15;;;;;;;35.97;18.92;;;21.90;37.30;;;;;;7684766;22;84414;-59
2022/12/03 01:33:56;;;;;;;39.38;18.67;;;21.90;37.20;;;;;;7713987;22;84804;-59
2022/12/03 01:36:56;;;;;;;35.40;17.80;;;21.90;37.30;;;;;;7712145;22;83207;-60
2022/12/03 01:39:57;;;;;;;35.22;18.45;;;21.90;37.30;;;;;;7713260;22;83615;-59
2022/12/03 01:42:57;;;;;;;37.20;18.63;;;21.90;37.40;;;;;;7712049;22;83298;-67
2022/12/03 01:45:58;;;;;;;33.95;18.05;;;21.90;37.40;;;;;;7715459;22;83028;-68
2022/12/03 01:48:58;;;;;;;41.20;19.40;;;21.90;37.50;;;;;;7712246;22;82927;-69
2022/12/03 01:51:59;;;;;;;33.15;17.77;;;21.90;37.50;;;;;;7712337;22;84301;-69
2022/12/03 01:54:59;;;;;;;38.58;18.88;;;21.90;37.60;;;;;;7713673;22;83319;-68
2022/12/03 01:58:00;;;;;;;35.35;17.80;;;21.90;37.70;;;;;;7713523;22;83049;-68
2022/12/03 02:01:01;;;;;;;40.55;18.20;;;21.90;37.70;;;;;;7714650;22;83212;-68
2022/12/03 02:04:01;;;;;;;34.15;18.20;;;21.90;37.70;;;;;;7711736;22;84692;-67
2022/12/03 02:07:02;;;;;;;34.58;17.75;;;21.90;37.80;;;;;;7711584;22;83299;-69
2022/12/03 02:10:02;;;;;;;37.85;18.00;;;21.90;37.70;;;;;;7714131;22;83330;-69
2022/12/03 02:13:03;;;;;;;38.22;19.02;;;21.90;37.80;;;;;;7715342;22;83026;-69
2022/12/03 02:16:03;;;;;;;39.35;19.80;;;21.90;37.70;;;;;;7711011;22;83047;-68
2022/12/03 02:19:04;;;;;;;38.05;18.13;;;21.90;37.70;;;;;;7712058;22;82795;-58
2022/12/03 02:22:04;;;;;;;36.88;18.73;;;21.80;37.70;;;;;;7715551;22;84916;-59
2022/12/03 02:25:05;;;;;;;42.28;19.67;;;21.90;37.70;;;;;;7711760;22;82927;-57
2022/12/03 02:28:05;;;;;;;44.80;19.77;;;21.80;37.50;;;;;;7713900;22;83505;-58
2022/12/03 02:31:06;;;;;;;37.85;19.80;;;21.90;37.60;;;;;;7714127;22;83498;-58
2022/12/03 02:34:06;;;;;;;43.10;21.80;;;21.90;37.70;;;;;;7716251;22;82740;-57
2022/12/03 02:37:07;;;;;;;39.35;20.00;;;21.80;37.90;;;;;;7711221;22;84812;-57
2022/12/03 02:40:08;;;;;;;40.20;19.83;;;21.90;37.60;;;;;;7712451;22;82874;-70
2022/12/03 02:43:09;;;;;;;47.75;22.80;;;21.90;37.60;;;;;;7713045;22;83079;-65
2022/12/03 02:46:09;;;;;;;39.70;19.83;;;21.90;37.50;;;;;;7714418;22;82649;-66
2022/12/03 02:49:10;;;;;;;44.00;20.73;;;21.80;37.50;;;;;;7714444;22;83497;-66
2022/12/03 02:52:11;;;;;;;43.88;20.67;;;21.80;37.50;;;;;;7714650;22;83275;-67
2022/12/03 02:55:12;;;;;;;46.67;21.55;;;21.80;37.50;;;;;;7714238;22;83125;-66
2022/12/03 02:58:12;;;;;;;42.33;21.08;;;21.80;37.50;;;;;;7713221;22;83146;-59
2022/12/03 03:01:15;;;;;;;43.45;20.67;;;21.80;37.60;;;;;;7716215;22;83822;-59
2022/12/03 03:04:16;;;;;;;42.97;22.00;;;21.80;37.50;;;;;;7708953;22;82779;-59
2022/12/03 03:07:16;;;;;;;42.15;21.17;;;21.80;37.50;;;;;;7713698;22;83235;-59
2022/12/03 03:10:17;;;;;;;47.13;22.83;;;21.80;37.50;;;;;;7687325;22;82933;-59
2022/12/03 03:13:17;;;;;;;43.25;21.63;;;21.80;37.40;;;;;;7688659;22;84015;-59
2022/12/03 03:16:18;;;;;;;41.45;21.40;;;21.80;37.40;;;;;;7713974;22;82852;-68
2022/12/03 03:19:18;;;;;;;44.67;21.83;;;21.80;37.50;;;;;;7714345;22;82773;-67
2022/12/03 03:22:21;;;;;;;43.75;21.13;;;21.80;37.50;;;;;;7710179;22;84722;-67
2022/12/03 03:25:23;;;;;;;42.22;21.27;;;21.80;37.50;;;;;;7716660;22;83141;-66
2022/12/03 03:28:23;;;;;;;47.20;22.63;;;21.80;37.40;;;;;;7713170;22;83025;-66
2022/12/03 03:31:24;;;;;;;42.67;20.45;;;21.80;37.30;;;;;;7714019;22;83514;-67
2022/12/03 03:34:25;;;;;;;42.85;21.33;;;21.80;37.30;;;;;;7712723;22;85374;-65
2022/12/03 03:37:25;;;;;;;48.30;22.45;;;21.80;37.30;;;;;;7715217;22;83116;-65
2022/12/03 03:40:25;;;;;;;43.92;22.15;;;21.80;37.30;;;;;;7713291;22;82937;-64
2022/12/03 03:43:28;;;;;;;44.20;21.08;;;21.80;37.30;;;;;;7710533;22;83060;-64
2022/12/03 03:46:28;;;;;;;40.83;21.00;;;21.80;37.40;;;;;;7713100;22;83118;-65
2022/12/03 03:49:29;;;;;;;41.80;21.52;;;21.80;37.40;;;;;;7714989;22;82920;-63
2022/12/03 03:52:29;;;;;;;42.58;21.48;;;21.80;37.30;;;;;;7712992;22;82810;-59
2022/12/03 03:55:30;;;;;;;41.47;21.77;;;21.80;37.30;;;;;;7714059;22;83084;-57
2022/12/03 03:58:30;;;;;;;48.63;23.17;;;21.80;37.30;;;;;;7713384;22;83152;-59
2022/12/03 04:01:31;;;;;;;44.00;22.02;;;21.80;37.30;;;;;;7711566;22;83049;-59
2022/12/03 04:04:32;;;;;;;43.78;21.00;;;21.80;37.30;;;;;;7712024;22;84943;-58
2022/12/03 04:07:32;;;;;;;43.17;21.90;;;21.80;37.40;;;;;;7713898;22;83383;-59
2022/12/03 04:13:52;;;;;;;43.42;20.73;;;21.80;37.30;;;;;;7713864;22;83157;-59
2022/12/03 04:16:52;;;;;;;42.92;22.13;;;21.80;37.50;;;;;;7714583;22;83840;-59
2022/12/03 04:19:53;;;;;;;49.88;22.50;;;21.80;37.20;;;;;;7713469;22;83320;-59
2022/12/03 04:22:53;;;;;;;48.53;22.77;;;21.90;37.10;;;;;;7713473;22;83820;-59
2022/12/03 04:29:13;;;;;;;46.40;22.50;;;22.00;36.90;;;;;;7710940;22;85782;-58
2022/12/03 04:35:42;;;;;;;45.42;22.70;;;22.10;36.80;;;;;;7714844;22;84831;-58
2022/12/03 04:38:42;;;;;;;40.92;20.60;;;22.20;36.70;;;;;;7712818;22;84133;-58
2022/12/03 04:41:43;;;;;;;44.78;21.70;;;22.20;36.60;;;;;;7685137;22;86089;-58
2022/12/03 04:44:43;;;;;;;41.95;21.95;;;22.30;36.60;;;;;;7713912;22;82942;-59
2022/12/03 04:47:44;;;;;;;38.55;20.30;;;22.30;36.50;;;;;;7713148;22;84443;-59
2022/12/03 04:50:44;;;;;;;40.05;21.85;;;22.40;36.40;;;;;;7713162;22;83188;-59
2022/12/03 04:53:45;;;;;;;38.20;22.05;;;22.40;36.30;;;;;;7713851;22;83722;-59
2022/12/03 04:56:45;;;;;;;43.28;21.33;;;22.50;36.50;;;;;;7711998;22;83362;-57
2022/12/03 04:59:46;;;;;;;40.53;20.88;;;22.50;36.20;;;;;;7711448;22;82986;-59
2022/12/03 05:02:46;;;;;;;39.58;20.75;;;22.50;36.40;;;;;;7715658;22;83476;-58
2022/12/03 05:05:46;;;;;;;41.50;21.75;;;22.60;36.50;;;;;;7711906;22;83095;-60
2022/12/03 05:08:47;;;;;;;43.67;21.38;;;22.60;36.80;;;;;;7708852;22;83436;-59
2022/12/03 05:11:47;;;;;;;45.72;20.23;;;22.60;36.90;;;;;;7707784;22;84137;-61
2022/12/03 05:14:48;;;;;;;40.75;20.40;;;22.70;37.20;;;;;;7712282;22;83551;-59
2022/12/03 05:18:03;;;;;;;35.67;20.73;;;22.70;37.20;;;;;;7694297;22;83502;-60
2022/12/03 05:21:04;;;;;;;45.60;20.88;;;22.70;37.30;;;;;;7710385;22;83632;-60
2022/12/03 05:24:05;;;;;;;38.45;19.40;;;22.70;37.50;;;;;;7698761;22;84592;-64
2022/12/03 05:27:06;;;;;;;36.67;19.63;;;22.70;37.40;;;;;;7702483;22;83690;-65
2022/12/03 05:30:06;;;;;;;45.25;19.98;;;22.70;37.60;;;;;;7701994;22;84165;-62
2022/12/03 05:33:07;;;;;;;37.55;19.20;;;22.80;37.50;;;;;;7706895;22;83581;-64
2022/12/03 05:36:07;;;;;;;39.35;20.20;;;22.80;37.40;;;;;;7710712;22;83334;-62
2022/12/03 05:39:08;;;;;;;37.80;20.30;;;22.80;37.20;;;;;;7693133;22;84168;-66
2022/12/03 05:45:28;;;;;;;36.92;20.92;;;22.80;37.60;;;;;;7709202;22;84183;-58
2022/12/03 05:48:28;;;;;;;38.80;19.45;;;22.80;37.40;;;;;;7707856;22;83370;-57
2022/12/03 05:51:29;;;;;;;38.55;19.73;;;22.80;37.70;;;;;;7706554;22;83705;-59
2022/12/03 05:54:30;;;;;;;37.38;19.08;;;22.80;37.90;;;;;;7702453;22;83728;-59
2022/12/03 05:57:31;;;;;;;35.15;19.23;;;22.80;38.20;;;;;;7710277;22;83255;-58
2022/12/03 06:00:32;;;;;;;39.25;21.23;;;22.90;38.20;;;;;;7709443;22;82867;-73
2022/12/03 06:03:32;;;;;;;36.80;20.48;;;22.90;38.40;;;;;;7707999;22;84723;-69
2022/12/03 06:06:33;;;;;;;38.65;19.95;;;22.90;38.40;;;;;;7710189;22;82900;-65
2022/12/03 06:09:33;;;;;;;40.90;20.33;;;22.90;38.30;;;;;;7708418;22;83359;-68
2022/12/03 06:12:33;;;;;;;38.60;20.48;;;22.90;37.90;;;;;;7670478;22;85967;-69
2022/12/03 06:15:34;;;;;;;40.00;20.55;;;22.80;37.70;;;;;;7689860;22;83200;-68
2022/12/03 06:18:34;;;;;;;38.58;21.13;;;22.90;38.20;;;;;;7679463;22;83639;-61
2022/12/03 06:21:35;;;;;;;40.15;19.80;;;22.80;38.50;;;;;;7686743;22;83693;-60
2022/12/03 06:24:35;;;;;;;35.72;19.20;;;22.80;38.80;;;;;;7693960;22;84293;-62
2022/12/03 06:27:37;;;;;;;37.65;19.85;;;22.80;39.20;;;;;;7703187;22;82719;-60
2022/12/03 06:30:37;;;;;;;36.97;19.83;;;22.80;39.00;;;;;;7711499;22;82861;-63
2022/12/03 06:33:38;;;;;;;32.63;19.23;;;22.80;38.60;;;;;;7709335;22;83872;-61
2022/12/03 06:36:38;;;;;;;40.08;21.00;;;22.80;38.30;;;;;;7707786;22;83459;-62
2022/12/03 06:39:39;;;;;;;36.97;20.45;;;22.80;38.10;;;;;;7707290;22;83274;-66
2022/12/03 06:42:39;;;;;;;35.17;19.30;;;22.80;38.20;;;;;;7709326;22;83590;-69
2022/12/03 06:45:40;;;;;;;37.53;20.98;;;22.70;37.80;;;;;;7709143;22;83004;-67
2022/12/03 06:48:40;;;;;;;37.67;19.63;;;22.70;38.10;;;;;;7707145;22;83360;-65
2022/12/03 06:51:41;;;;;;;38.75;21.23;;;22.70;37.80;;;;;;7707244;22;83777;-69
2022/12/03 06:54:41;;;;;;;39.25;20.63;;;22.70;37.80;;;;;;7709605;22;84123;-61
2022/12/03 06:57:42;;;;;;;40.47;19.92;;;22.60;37.50;;;;;;7702011;22;83893;-62
2022/12/03 07:00:42;;;;;;;43.08;21.98;;;22.60;37.80;;;;;;7707209;22;83253;-61
2022/12/03 07:03:42;;;;;;;40.67;21.38;;;22.60;37.80;;;;;;7701311;22;84738;-66
2022/12/03 07:06:43;;;;;;;38.08;20.40;;;22.60;38.20;;;;;;7699698;22;83501;-73
2022/12/03 07:09:43;;;;;;;39.80;21.50;;;22.50;38.50;;;;;;7699090;22;84398;-63
2022/12/03 07:12:44;;;;;;;45.80;20.83;;;22.50;38.40;;;;;;7699394;22;83669;-60
2022/12/03 07:15:44;;;;;;;46.25;22.92;;;22.50;38.60;;;;;;7708958;22;83372;-59
2022/12/03 07:18:45;;;;;;;37.88;20.30;;;22.50;38.40;;;;;;7710016;22;84519;-59
2022/12/03 07:21:46;;;;;;;40.30;22.15;;;22.50;38.30;;;;;;7713425;22;83519;-58
2022/12/03 07:24:46;;;;;;;43.25;21.40;;;22.40;38.30;;;;;;7708201;22;83600;-58
2022/12/03 07:27:47;;;;;;;41.05;21.55;;;22.40;38.30;;;;;;7695091;22;83214;-58
2022/12/03 07:30:47;;;;;;;46.60;21.42;;;22.30;38.00;;;;;;7694551;22;83091;-59
2022/12/03 07:33:48;;;;;;;41.75;22.02;;;22.30;37.90;;;;;;7696699;22;83678;-65
2022/12/03 07:36:48;;;;;;;40.47;22.45;;;22.30;37.70;;;;;;7694372;22;83455;-66
2022/12/03 07:39:51;;;;;;;43.80;23.67;;;22.30;37.60;;;;;;7694072;22;84964;-66
2022/12/03 07:42:51;;;;;;;42.80;23.02;;;22.20;37.20;;;;;;7695992;22;89115;-64
2022/12/03 07:45:52;;;;;;;42.90;22.83;;;22.20;37.10;;;;;;7708840;22;83870;-65
2022/12/03 07:48:52;;;;;;;46.58;24.17;;;22.20;36.90;;;;;;7708265;22;83128;-67
2022/12/03 07:51:53;;;;;;;43.95;23.75;;;22.10;36.80;;;;;;7709224;22;83111;-65
2022/12/03 07:54:53;;;;;;;42.42;23.65;;;22.10;36.80;;;;;;7711424;22;83143;-65
2022/12/03 07:57:54;;;;;;;43.13;23.25;;;22.10;36.80;;;;;;7713711;22;83371;-65
2022/12/03 08:00:54;;;;;;;43.67;23.35;;;22.10;36.60;;;;;;7710960;22;83173;-65
2022/12/03 08:03:55;;;;;;;47.35;25.23;;;22.10;36.70;;;;;;7712682;22;83004;-66
2022/12/03 08:06:55;;;;;;;44.80;24.23;;;22.00;36.60;;;;;;7711954;22;84104;-64
2022/12/03 08:09:56;;;;;;;46.15;24.95;;;22.00;36.60;;;;;;7713650;22;82918;-64
2022/12/03 08:12:56;;;;;;;43.80;24.65;;;22.00;36.60;;;;;;7711107;22;89766;-64
2022/12/03 08:15:57;;;;;;;44.85;23.38;;;22.00;36.70;;;;;;7711339;22;84116;-66
2022/12/03 08:18:57;;;;;;;43.95;23.90;;;22.00;36.70;;;;;;7712169;22;84470;-65
2022/12/03 08:21:58;;;;;;;45.50;24.08;;;22.00;36.70;;;;;;7713524;22;83797;-65
2022/12/03 08:24:58;;;;;;;45.10;24.10;;;22.00;36.60;;;;;;7711774;22;82785;-65
2022/12/03 08:27:59;;;;;;;48.10;24.90;;;22.00;36.90;;;;;;7711072;22;83138;-59
2022/12/03 08:30:59;;;;;;;45.88;25.00;;;22.00;36.90;;;;;;7711830;22;83447;-59
2022/12/03 08:34:00;;;;;;;47.15;25.25;;;22.00;36.90;;;;;;7711667;22;83085;-58
2022/12/03 08:37:00;;;;;;;48.47;26.08;;;22.00;36.40;;;;;;7679446;22;84375;-59
2022/12/03 08:40:01;;;;;;;49.08;25.85;;;22.10;36.70;;;;;;7697333;22;83180;-59
2022/12/03 08:43:01;;;;;;;49.65;25.33;;;22.10;35.90;;;;;;7713277;22;82912;-59
2022/12/03 08:46:02;;;;;;;50.65;26.60;;;22.10;35.90;;;;;;7714225;22;83434;-62
2022/12/03 08:49:02;;;;;;;53.45;26.98;;;22.20;36.20;;;;;;7714156;22;82902;-67
2022/12/03 08:52:03;;;;;;;56.33;28.90;;;22.30;36.30;;;;;;7713707;22;82989;-61
2022/12/03 08:55:03;;;;;;;59.53;31.85;;;22.30;36.10;;;;;;7709654;22;84008;-59
2022/12/03 08:58:04;;;;;;;65.80;32.28;;;22.30;35.70;;;;;;7714540;22;83096;-62
2022/12/03 09:01:04;;;;;;;63.30;32.88;;;22.30;35.30;;;;;;7713824;22;82783;-61
2022/12/03 09:04:05;;;;;;;67.68;34.17;;;22.40;35.20;;;;;;7710830;22;83424;-62
2022/12/03 09:07:05;;;;;;;71.40;34.92;;;22.40;35.60;;;;;;7715195;22;83383;-63
2022/12/03 09:10:05;;;;;;;63.00;34.55;;;22.40;34.70;;;;;;7710735;22;83264;-62
2022/12/03 09:13:06;;;;;;;70.85;36.28;;;22.40;34.50;;;;;;7715918;22;83578;-62
2022/12/03 09:16:06;;;;;;;66.22;34.20;;;22.40;34.40;;;;;;7715857;22;82827;-64
2022/12/03 09:19:07;;;;;;;63.92;35.35;;;22.40;34.30;;;;;;7713913;22;82950;-63
2022/12/03 09:22:07;;;;;;;75.28;35.83;;;22.40;34.10;;;;;;7712130;22;83090;-59
2022/12/03 09:25:08;;;;;;;78.93;40.03;;;22.40;34.20;;;;;;7709183;22;84504;-60
2022/12/03 09:28:09;;;;;;;65.03;35.13;;;22.40;34.20;;;;;;7711928;22;83025;-60
2022/12/03 09:31:09;;;;;;;70.68;35.65;;;22.40;34.50;;;;;;7713201;22;84367;-57
2022/12/03 09:34:10;;;;;;;68.15;35.28;;;22.40;34.60;;;;;;7709703;22;83969;-60
2022/12/03 09:37:10;;;;;;;63.17;33.60;;;22.40;35.70;;;;;;7710234;22;83182;-59
2022/12/03 09:40:12;;;;;;;60.20;32.40;;;22.40;36.60;;;;;;7709427;22;82842;-62
2022/12/03 09:43:12;;;;;;;65.88;34.78;;;22.40;37.00;;;;;;7712316;22;82660;-64
2022/12/03 09:46:13;;;;;;;61.15;32.10;;;22.40;37.60;;;;;;7713168;22;83013;-65
2022/12/03 09:49:13;;;;;;;66.45;33.65;;;22.40;38.20;;;;;;7715960;22;82789;-68
2022/12/03 09:52:14;;;;;;;68.97;32.38;;;22.50;38.60;;;;;;7708865;22;83921;-66
2022/12/03 09:55:14;;;;;;;68.60;32.33;;;22.50;38.80;;;;;;7712863;22;84623;-66
2022/12/03 09:58:15;;;;;;;66.70;31.33;;;22.50;38.80;;;;;;7715909;22;83463;-64
2022/12/03 10:01:15;;;;;;;66.30;31.52;;;22.50;39.00;;;;;;7714255;22;83524;-64
2022/12/03 10:04:16;;;;;;;66.22;30.58;;;22.50;39.30;;;;;;7713566;22;83686;-64
2022/12/03 10:07:16;;;;;;;64.97;29.90;;;22.50;39.30;;;;;;7709225;22;82956;-64
2022/12/03 10:10:17;;;;;;;70.22;32.08;;;22.50;39.60;;;;;;7713313;22;83573;-65
2022/12/03 10:13:17;;;;;;;61.08;31.42;;;22.50;39.70;;;;;;7715877;22;82897;-64
2022/12/03 10:16:19;;;;;;;57.08;29.45;;;22.60;39.70;;;;;;7712170;22;83121;-61
2022/12/03 10:19:20;;;;;;;62.72;31.75;;;22.50;39.60;;;;;;7681089;22;85878;-64
2022/12/03 10:22:20;;;;;;;55.60;30.85;;;22.50;39.70;;;;;;7701384;22;84165;-63
2022/12/03 10:25:21;;;;;;;57.20;30.80;;;22.60;39.80;;;;;;7709203;22;83610;-65
2022/12/03 10:28:21;;;;;;;57.65;30.90;;;22.60;39.60;;;;;;7707183;22;83291;-65
2022/12/03 10:31:21;;;;;;;50.70;29.48;;;22.60;39.60;;;;;;7654215;22;84239;-64
2022/12/03 10:34:22;;;;;;;55.78;30.40;;;22.60;39.50;;;;;;7711503;22;83104;-65
2022/12/03 10:37:22;;;;;;;58.65;31.05;;;22.60;39.40;;;;;;7708498;22;83244;-60
2022/12/03 10:40:23;;;;;;;63.17;30.17;;;22.60;39.20;;;;;;7712296;22;82605;-64
2022/12/03 10:43:23;;;;;;;55.45;29.17;;;22.60;39.30;;;;;;7688516;22;83905;-68
2022/12/03 10:46:24;;;;;;;58.92;30.85;;;22.60;39.20;;;;;;7712646;22;83215;-64
2022/12/03 10:49:24;;;;;;;49.78;29.02;;;22.60;39.10;;;;;;7714568;22;82776;-67
2022/12/03 10:52:25;;;;;;;53.15;29.73;;;22.60;39.00;;;;;;7709087;22;83767;-67
2022/12/03 10:55:25;;;;;;;58.35;30.75;;;22.70;39.10;;;;;;7712174;22;83366;-60
2022/12/03 10:58:26;;;;;;;60.50;30.30;;;22.70;39.40;;;;;;7713160;22;83459;-61
2022/12/03 11:01:26;;;;;;;58.10;31.10;;;22.60;40.90;;;;;;7716477;22;89706;-59
2022/12/03 11:04:27;;;;;;;55.92;31.23;;;22.70;40.90;;;;;;7709746;22;83023;-59
2022/12/03 11:07:27;;;;;;;52.45;29.38;;;22.60;41.00;;;;;;7713128;22;82899;-59
2022/12/03 11:10:28;;;;;;;52.30;29.67;;;22.70;41.30;;;;;;7713960;22;82907;-59
2022/12/03 11:13:28;;;;;;;54.88;30.65;;;22.60;41.30;;;;;;7711046;22;83009;-62
2022/12/03 11:16:29;;;;;;;50.22;29.17;;;22.60;41.30;;;;;;7715467;22;82894;-63
2022/12/03 11:19:29;;;;;;;52.70;28.67;;;22.60;41.40;;;;;;7708706;22;82836;-62
2022/12/03 11:22:30;;;;;;;53.85;29.02;;;22.60;41.30;;;;;;7711744;22;82779;-63
2022/12/03 11:25:30;;;;;;;51.15;28.30;;;22.60;41.40;;;;;;7715650;22;83053;-62
2022/12/03 11:28:31;;;;;;;56.22;29.77;;;22.60;41.60;;;;;;7712361;22;84337;-62
2022/12/03 11:31:31;;;;;;;54.75;29.58;;;22.60;41.60;;;;;;7685984;22;82765;-66
2022/12/03 11:34:32;;;;;;;53.08;28.02;;;22.70;41.80;;;;;;7709282;22;83377;-68
2022/12/03 11:37:33;;;;;;;55.05;27.02;;;22.70;41.70;;;;;;7713694;22;82921;-68
2022/12/03 11:40:34;;;;;;;52.80;28.00;;;22.70;41.70;;;;;;7709809;22;83282;-69
2022/12/03 11:43:34;;;;;;;54.28;28.88;;;22.70;41.80;;;;;;7709035;22;83291;-69
2022/12/03 11:46:35;;;;;;;53.65;28.67;;;22.70;41.80;;;;;;7709197;22;82967;-70
2022/12/03 11:49:36;;;;;;;53.83;29.35;;;22.70;41.60;;;;;;7705947;22;83471;-68
2022/12/03 11:52:36;;;;;;;53.97;28.55;;;22.70;41.50;;;;;;7709650;22;85900;-65
2022/12/03 11:55:37;;;;;;;48.88;28.70;;;22.70;41.60;;;;;;7715405;22;83114;-70
2022/12/03 11:58:37;;;;;;;52.30;29.00;;;22.70;41.50;;;;;;7715694;22;82740;-69
2022/12/03 12:01:38;;;;;;;52.05;29.63;;;22.70;41.60;;;;;;7685178;22;83408;-67
2022/12/03 12:04:45;;;;;;;59.05;30.77;;;22.70;41.40;;;;;;7712054;22;83854;-67
2022/12/03 12:07:46;;;;;;;60.63;28.10;;;22.70;41.70;;;;;;7713042;22;83091;-68
2022/12/03 12:10:47;;;;;;;53.42;28.45;;;22.70;41.80;;;;;;7714550;22;83469;-68
2022/12/03 12:13:47;;;;;;;50.45;27.58;;;22.70;42.00;;;;;;7715956;22;83594;-68
2022/12/03 12:16:51;;;;;;;60.08;30.20;;;22.70;42.20;;;;;;7708290;22;83357;-69
2022/12/03 12:19:51;;;;;;;67.78;31.98;;;22.70;42.20;;;;;;7706303;22;84722;-68
2022/12/03 12:22:52;;;;;;;61.60;31.75;;;22.80;42.40;;;;;;7707156;22;83095;-68
2022/12/03 12:25:52;;;;;;;59.45;30.40;;;22.80;42.40;;;;;;7711436;22;82929;-66
2022/12/03 12:28:53;;;;;;;60.92;31.15;;;22.80;42.50;;;;;;7717099;22;83469;-67
2022/12/03 12:31:53;;;;;;;65.22;32.58;;;22.80;42.80;;;;;;7709205;22;83298;-64
2022/12/03 12:34:54;;;;;;;63.85;33.72;;;22.80;42.70;;;;;;7715153;22;82939;-64
2022/12/03 12:37:54;;;;;;;65.20;33.17;;;22.80;42.70;;;;;;7713002;22;82892;-63
2022/12/03 12:40:55;;;;;;;62.22;34.22;;;22.90;42.50;;;;;;7713691;22;83068;-64
2022/12/03 12:43:56;;;;;;;70.03;36.35;;;22.80;42.50;;;;;;7713999;22;83986;-60
2022/12/03 12:46:56;;;;;;;66.55;33.85;;;22.90;42.50;;;;;;7710432;22;83420;-60
2022/12/03 12:49:57;;;;;;;64.30;34.88;;;22.80;42.90;;;;;;7713420;22;82878;-62
2022/12/03 12:52:57;;;;;;;66.28;33.15;;;22.70;43.20;;;;;;7710371;22;83026;-61
2022/12/03 12:55:59;;;;;;;56.22;31.13;;;22.70;42.90;;;;;;7711417;22;82729;-59
2022/12/03 12:59:00;;;;;;;56.92;29.63;;;22.80;43.00;;;;;;7713498;22;83095;-59
2022/12/03 13:02:00;;;;;;;57.22;30.08;;;22.70;43.10;;;;;;7710869;22;83280;-63
2022/12/03 13:05:01;;;;;;;56.25;29.58;;;22.70;42.80;;;;;;7707080;22;83151;-69
2022/12/03 13:08:01;;;;;;;56.90;30.70;;;22.70;42.40;;;;;;7714445;22;91322;-66
2022/12/03 13:11:02;;;;;;;58.03;29.58;;;22.70;42.50;;;;;;7712626;22;87598;-65
2022/12/03 13:14:02;;;;;;;60.13;28.73;;;22.60;43.00;;;;;;7715204;22;84171;-68
2022/12/03 13:17:03;;;;;;;60.50;29.20;;;22.60;43.50;;;;;;7709068;22;83160;-60
2022/12/03 13:20:03;;;;;;;52.97;27.23;;;22.60;42.90;;;;;;7714713;22;83035;-74
2022/12/03 13:23:04;;;;;;;65.72;27.17;;;22.60;42.60;;;;;;7712598;22;83479;-64
2022/12/03 13:26:05;;;;;;;59.92;28.67;;;22.60;42.80;;;;;;7712565;22;83315;-69
2022/12/03 13:29:05;;;;;;;56.35;28.30;;;22.50;42.70;;;;;;7711812;22;83254;-74
2022/12/03 13:32:06;;;;;;;52.30;26.75;;;22.50;42.40;;;;;;7708338;22;83369;-74
2022/12/03 13:35:06;;;;;;;52.22;27.08;;;22.50;42.30;;;;;;7714996;22;84097;-73
2022/12/03 13:38:07;;;;;;;54.03;27.80;;;22.50;42.30;;;;;;7714464;22;83464;-73
2022/12/03 13:42:37;;;;;;;51.25;26.65;;;22.40;42.20;;;;;;7711461;22;83940;-68
2022/12/03 13:44:28;;;;;;;55.95;30.10;;;22.40;42.30;;;;;;7710989;22;84454;-71
2022/12/03 13:47:28;;;;;;;55.30;28.25;;;22.40;42.30;;;;;;7715606;22;82677;-68
2022/12/03 13:50:29;;;;;;;58.15;29.48;;;22.40;42.30;;;;;;7714516;22;83140;-70
2022/12/03 13:53:29;;;;;;;53.10;27.88;;;22.40;42.40;;;;;;7712844;22;83561;-64
2022/12/03 13:56:30;;;;;;;57.75;29.52;;;22.30;42.40;;;;;;7715491;22;84431;-67
2022/12/03 13:59:30;;;;;;;57.10;29.90;;;22.30;42.70;;;;;;7702581;22;82685;-65
2022/12/03 14:02:31;;;;;;;52.40;28.08;;;22.30;42.40;;;;;;7707510;22;84719;-66
2022/12/03 14:05:31;;;;;;;55.38;30.42;;;22.30;42.20;;;;;;7707112;22;84266;-67
2022/12/03 14:08:32;;;;;;;56.70;29.67;;;22.30;42.20;;;;;;7709654;22;84261;-68
2022/12/03 14:14:52;;;;;;;56.90;28.45;;;22.30;42.40;;;;;;7712519;22;83011;-62
2022/12/03 14:17:52;;;;;;;58.50;30.50;;;22.30;42.30;;;;;;7715371;22;82990;-64
2022/12/03 14:20:53;;;;;;;61.00;30.85;;;22.30;42.10;;;;;;7713665;22;82972;-61
2022/12/03 14:23:53;;;;;;;60.15;31.17;;;22.30;41.90;;;;;;7714231;22;83430;-62
2022/12/03 14:26:54;;;;;;;56.83;29.90;;;22.30;41.80;;;;;;7710846;22;83451;-60
2022/12/03 14:29:54;;;;;;;58.75;28.90;;;22.30;41.80;;;;;;7685110;22;82863;-63
2022/12/03 14:32:55;;;;;;;56.78;29.80;;;22.20;42.10;;;;;;7713596;22;83166;-62
2022/12/03 14:35:56;;;;;;;52.72;29.40;;;22.30;41.80;;;;;;7715971;22;84732;-61
2022/12/03 14:38:56;;;;;;;56.72;29.23;;;22.30;41.50;;;;;;7713861;22;83951;-62
2022/12/03 14:42:12;;;;;;;57.95;29.75;;;22.30;41.60;;;;;;7710360;22;83549;-61
2022/12/03 14:45:13;;;;;;;58.17;30.02;;;22.30;41.40;;;;;;7708833;22;82970;-65
2022/12/03 14:48:13;;;;;;;59.40;30.63;;;22.30;41.20;;;;;;7713775;22;82925;-66
2022/12/03 14:51:14;;;;;;;56.60;28.17;;;22.30;41.50;;;;;;7715190;22;83004;-71
2022/12/03 14:54:14;;;;;;;58.00;29.85;;;22.30;41.80;;;;;;7714091;22;83152;-65
2022/12/03 14:57:15;;;;;;;57.80;29.10;;;22.40;42.10;;;;;;7710276;22;83236;-65
2022/12/03 15:00:15;;;;;;;58.63;27.25;;;22.40;41.90;;;;;;7701506;22;83418;-64
2022/12/03 15:03:16;;;;;;;54.83;28.50;;;22.50;42.50;;;;;;7704890;22;83337;-67
2022/12/03 15:06:16;;;;;;;57.05;29.75;;;22.50;42.30;;;;;;7710196;22;84575;-65
2022/12/03 15:09:17;;;;;;;58.08;29.30;;;22.50;42.30;;;;;;7708693;22;83364;-64
2022/12/03 15:12:17;;;;;;;55.50;28.83;;;22.50;42.10;;;;;;7706262;22;84235;-67
2022/12/03 15:15:18;;;;;;;54.42;28.77;;;22.50;41.90;;;;;;7705272;22;83299;-66
2022/12/03 15:18:18;;;;;;;52.13;29.67;;;22.60;41.80;;;;;;7705013;22;83666;-64
2022/12/03 15:21:19;;;;;;;52.30;29.23;;;22.60;41.60;;;;;;7706260;22;84095;-63
2022/12/03 15:24:19;;;;;;;56.67;28.70;;;22.60;41.40;;;;;;7707945;22;83993;-62
2022/12/03 15:27:20;;;;;;;54.97;28.45;;;22.60;41.30;;;;;;7701017;22;84156;-67
2022/12/03 15:30:20;;;;;;;54.45;28.90;;;22.60;41.30;;;;;;7713729;22;84321;-58
2022/12/03 15:33:21;;;;;;;54.38;28.83;;;22.60;41.00;;;;;;7714421;22;82901;-61